createdAt,value
2023-02-14T00:02:19.007Z,101908.59
2023-02-14T00:04:47.159Z,101904.19
2023-02-14T00:07:14.348Z,101889.09
2023-02-14T00:09:41.105Z,101894.91
2023-02-14T00:12:07.984Z,101875.91
2023-02-14T00:14:53.237Z,101865.22
2023-02-14T00:17:19.943Z,101884.47
2023-02-14T00:19:46.741Z,101889.97
2023-02-14T00:22:14.533Z,101890.50
2023-02-14T00:24:41.302Z,101880.59
2023-02-14T00:27:08.320Z,101866.84
2023-02-14T00:29:35.086Z,101864.63
2023-02-14T00:32:02.158Z,101872.06
2023-02-14T00:34:29.179Z,101865.72
2023-02-14T00:36:55.877Z,101869.00
2023-02-14T00:39:22.635Z,101869.00
2023-02-14T00:41:49.463Z,101869.25
2023-02-14T00:44:16.298Z,101862.34
2023-02-14T00:46:43.027Z,101865.63
2023-02-14T00:49:10.294Z,101860.94
2023-02-14T00:51:37.256Z,101849.94
2023-02-14T00:54:04.153Z,101844.13
2023-02-14T00:56:30.864Z,101853.22
2023-02-14T00:58:57.704Z,101863.41
2023-02-14T01:01:24.663Z,101867.28
2023-02-14T01:03:51.504Z,101872.78
2023-02-14T01:06:20.730Z,101866.44
2023-02-14T01:08:48.519Z,101859.03
2023-02-14T01:11:22.638Z,101866.44
2023-02-14T01:13:50.871Z,101863.19
2023-02-14T01:16:20.379Z,101853.59
2023-02-14T01:18:47.611Z,101848.88
2023-02-14T01:21:23.456Z,101858.47
2023-02-14T01:23:52.221Z,101835.09
2023-02-14T01:26:19.961Z,101838.38
2023-02-14T01:28:46.824Z,101847.13
2023-02-14T01:31:17.932Z,101842.47
2023-02-14T01:33:46.410Z,101835.81
2023-02-14T01:36:40.179Z,101832.50
2023-02-14T01:39:11.575Z,101830.28
2023-02-14T01:41:39.784Z,101819.81
2023-02-14T01:44:28.016Z,101815.34
2023-02-14T01:46:56.556Z,101822.75
2023-02-14T01:49:26.211Z,101821.34
2023-02-14T01:52:15.057Z,101821.53
2023-02-14T01:54:48.417Z,101821.28
2023-02-14T01:57:19.377Z,101817.94
2023-02-14T01:59:51.821Z,101809.69
2023-02-14T02:02:23.810Z,101804.69
2023-02-14T02:04:55.934Z,101801.94
2023-02-14T02:07:26.770Z,101804.38
2023-02-14T02:10:00.723Z,101802.16
2023-02-14T02:12:30.469Z,101815.91
2023-02-14T02:15:01.073Z,101814.28
2023-02-14T02:17:53.282Z,101804.69
2023-02-14T02:20:58.287Z,101796.19
2023-02-14T02:23:40.678Z,101803.63
2023-02-14T02:26:32.104Z,101795.94
2023-02-14T02:29:29.347Z,101798.19
2023-02-14T02:32:07.070Z,101794.59
2023-02-14T02:35:17.015Z,101799.31
2023-02-14T02:37:46.466Z,101794.59
2023-02-14T02:40:25.167Z,101780.84
2023-02-14T02:43:33.705Z,101788.00
2023-02-14T02:46:52.551Z,101786.59
2023-02-14T02:49:57.564Z,101786.00
2023-02-14T02:53:04.287Z,101776.66
2023-02-14T02:56:27.192Z,101764.50
2023-02-14T02:59:21.214Z,101776.03
2023-02-14T03:02:18.529Z,101768.91
2023-02-14T03:04:53.624Z,101770.31
2023-02-14T03:07:36.318Z,101776.66
2023-02-14T03:10:08.953Z,101778.56
2023-02-14T03:12:37.459Z,101785.19
2023-02-14T03:15:22.711Z,101767.84
2023-02-14T03:18:13.937Z,101782.94
2023-02-14T03:20:55.706Z,101771.94
2023-02-14T03:23:29.553Z,101765.63
2023-02-14T03:25:56.200Z,101755.16
2023-02-14T03:28:35.084Z,101759.50
2023-02-14T03:31:06.446Z,101757.31
2023-02-14T03:33:48.354Z,101755.91
2023-02-14T03:36:18.981Z,101742.41
2023-02-14T03:39:07.018Z,101735.81
2023-02-14T03:41:40.870Z,101736.63
2023-02-14T03:44:12.402Z,101726.41
2023-02-14T03:46:51.422Z,101723.66
2023-02-14T03:49:23.356Z,101726.13
2023-02-14T03:51:55.086Z,101715.13
2023-02-14T03:54:23.246Z,101721.44
2023-02-14T03:57:04.559Z,101725.31
2023-02-14T03:59:31.598Z,101718.97
2023-02-14T04:02:10.897Z,101715.13
2023-02-14T04:04:43.106Z,101727.78
2023-02-14T04:07:15.641Z,101723.06
2023-02-14T04:09:42.913Z,101729.41
2023-02-14T04:12:10.287Z,101729.13
2023-02-14T04:14:37.322Z,101735.34
2023-02-14T04:17:22.934Z,101731.19
2023-02-14T04:19:49.660Z,101731.41
2023-02-14T04:22:16.915Z,101734.38
2023-02-14T04:24:43.669Z,101733.78
2023-02-14T04:27:10.922Z,101728.81
2023-02-14T04:29:48.348Z,101723.81
2023-02-14T04:32:22.724Z,101727.06
2023-02-14T04:34:50.690Z,101722.69
2023-02-14T04:37:19.493Z,101719.94
2023-02-14T04:39:46.658Z,101728.72
2023-02-14T04:42:13.594Z,101728.13
2023-02-14T04:44:40.414Z,101727.53
2023-02-14T04:47:08.582Z,101726.13
2023-02-14T04:49:35.838Z,101723.06
2023-02-14T04:52:03.578Z,101737.88
2023-02-14T04:54:30.553Z,101716.34
2023-02-14T04:56:57.355Z,101724.00
2023-02-14T04:59:25.138Z,101711.84
2023-02-14T05:01:52.569Z,101706.34
2023-02-14T05:04:19.885Z,101719.03
2023-02-14T05:06:47.003Z,101721.25
2023-02-14T05:09:13.779Z,101708.59
2023-02-14T05:11:40.499Z,101712.50
2023-02-14T05:14:07.506Z,101716.34
2023-02-14T05:16:34.301Z,101698.78
2023-02-14T05:19:01.142Z,101712.84
2023-02-14T05:21:28.751Z,101711.53
2023-02-14T05:23:55.551Z,101715.91
2023-02-14T05:26:22.511Z,101703.25
2023-02-14T05:28:49.191Z,101707.13
2023-02-14T05:31:16.064Z,101707.13
2023-02-14T05:33:42.960Z,101714.28
2023-02-14T05:36:10.103Z,101696.63
2023-02-14T05:38:36.830Z,101699.09
2023-02-14T05:41:03.660Z,101703.16
2023-02-14T05:43:30.609Z,101699.50
2023-02-14T05:46:12.363Z,101693.72
2023-02-14T05:48:42.060Z,101683.50
2023-02-14T05:51:10.980Z,101700.84
2023-02-14T05:53:38.627Z,101695.31
2023-02-14T05:56:06.046Z,101689.81
2023-02-14T05:58:33.223Z,101697.81
2023-02-14T06:01:01.231Z,101695.56
2023-02-14T06:03:30.423Z,101693.31
2023-02-14T06:05:57.156Z,101689.13
2023-02-14T06:08:24.109Z,101680.88
2023-02-14T06:10:50.891Z,101681.91
2023-02-14T06:13:17.702Z,101676.91
2023-02-14T06:15:44.499Z,101678.25
2023-02-14T06:18:11.250Z,101681.50
2023-02-14T06:20:38.067Z,101678.47
2023-02-14T06:23:04.993Z,101686.13
2023-02-14T06:25:31.933Z,101680.31
2023-02-14T06:28:00.546Z,101686.63
2023-02-14T06:30:28.269Z,101684.16
2023-02-14T06:32:55.227Z,101694.41
2023-02-14T06:35:22.418Z,101681.72
2023-02-14T06:37:49.292Z,101678.97
2023-02-14T06:40:16.144Z,101681.72
2023-02-14T06:42:43.172Z,101674.28
2023-02-14T06:45:10.158Z,101672.34
2023-02-14T06:47:36.989Z,101667.63
2023-02-14T06:50:05.281Z,101677.25
2023-02-14T06:52:33.864Z,101683.88
2023-02-14T06:55:00.727Z,101689.91
2023-02-14T06:57:28.609Z,101694.81
2023-02-14T06:59:55.506Z,101685.44
2023-02-14T07:02:24.770Z,101682.59
2023-02-14T07:04:51.900Z,101675.66
2023-02-14T07:07:18.643Z,101675.31
2023-02-14T07:09:46.560Z,101676.97
2023-02-14T07:12:13.568Z,101679.13
2023-02-14T07:14:40.391Z,101682.38
2023-02-14T07:17:07.254Z,101690.34
2023-02-14T07:19:34.110Z,101682.59
2023-02-14T07:22:00.971Z,101685.53
2023-02-14T07:24:27.776Z,101688.81
2023-02-14T07:26:54.608Z,101689.34
2023-02-14T07:29:21.386Z,101690.97
2023-02-14T07:31:48.273Z,101694.25
2023-02-14T07:34:15.026Z,101696.69
2023-02-14T07:36:41.814Z,101699.97
2023-02-14T07:39:08.574Z,101697.72
2023-02-14T07:41:35.348Z,101697.09
2023-02-14T07:44:02.200Z,101703.94
2023-02-14T07:46:28.935Z,101704.16
2023-02-14T07:48:55.709Z,101707.13
2023-02-14T07:51:22.501Z,101699.03
2023-02-14T07:53:49.346Z,101702.38
2023-02-14T07:56:16.152Z,101690.41
2023-02-14T07:58:42.956Z,101703.59
2023-02-14T08:01:09.804Z,101705.75
2023-02-14T08:03:36.572Z,101707.34
2023-02-14T08:06:03.506Z,101717.78
2023-02-14T08:08:31.426Z,101708.91
2023-02-14T08:10:59.398Z,101709.41
2023-02-14T08:13:26.389Z,101717.38
2023-02-14T08:16:05.642Z,101715.13
2023-02-14T08:18:39.031Z,101723.63
2023-02-14T08:21:07.925Z,101716.13
2023-02-14T08:23:34.710Z,101716.97
2023-02-14T08:26:02.315Z,101720.22
2023-02-14T08:28:29.506Z,101706.94
2023-02-14T08:30:56.420Z,101711.03
2023-02-14T08:33:23.276Z,101698.56
2023-02-14T08:35:51.605Z,101704.59
2023-02-14T08:38:18.728Z,101698.72
2023-02-14T08:40:45.770Z,101694.84
2023-02-14T08:43:12.940Z,101698.63
2023-02-14T08:45:40.407Z,101687.50
2023-02-14T08:48:10.014Z,101700.34
2023-02-14T08:50:37.854Z,101700.56
2023-02-14T08:53:07.883Z,101695.22
2023-02-14T08:55:35.162Z,101703.72
2023-02-14T08:58:02.389Z,101706.69
2023-02-14T09:00:30.991Z,101702.97
2023-02-14T09:02:58.274Z,101698.78
2023-02-14T09:05:26.602Z,101703.69
2023-02-14T09:07:56.097Z,101710.81
2023-02-14T09:10:24.990Z,101704.16
2023-02-14T09:12:52.336Z,101694.78
2023-02-14T09:15:19.294Z,101706.81
2023-02-14T09:17:46.650Z,101710.91
2023-02-14T09:20:15.458Z,101700.66
2023-02-14T09:22:42.412Z,101702.31
2023-02-14T09:25:09.620Z,101702.81
2023-02-14T09:27:36.414Z,101697.78
2023-02-14T09:30:05.888Z,101701.03
2023-02-14T09:32:33.087Z,101702.34
2023-02-14T09:35:00.331Z,101702.56
2023-02-14T09:37:27.866Z,101707.13
2023-02-14T09:39:54.865Z,101694.63
2023-02-14T09:42:41.095Z,101694.84
2023-02-14T09:45:17.029Z,101703.31
2023-02-14T09:48:00.150Z,101703.81
2023-02-14T09:50:41.671Z,101711.78
2023-02-14T09:53:20.773Z,101702.03
2023-02-14T09:55:56.359Z,101691.50
2023-02-14T09:58:30.048Z,101696.38
2023-02-14T10:01:15.992Z,101698.53
2023-02-14T10:04:17.402Z,101701.97
2023-02-14T10:07:18.569Z,101697.97
2023-02-14T10:10:09.338Z,101705.16
2023-02-14T10:12:49.556Z,101701.97
2023-02-14T10:15:23.588Z,101701.50
2023-02-14T10:17:53.218Z,101711.09
2023-02-14T10:20:45.262Z,101713.44
2023-02-14T10:23:34.707Z,101695.56
2023-02-14T10:26:15.166Z,101693.19
2023-02-14T10:28:47.583Z,101700.38
2023-02-14T10:31:26.931Z,101704.31
2023-02-14T10:34:20.412Z,101710.19
2023-02-14T10:36:51.565Z,101712.81
2023-02-14T10:39:24.310Z,101717.38
2023-02-14T10:41:55.407Z,101717.22
2023-02-14T10:44:51.622Z,101720.03
2023-02-14T10:47:24.271Z,101715.50
2023-02-14T10:50:18.703Z,101720.72
2023-02-14T10:52:45.451Z,101719.28
2023-02-14T10:55:31.436Z,101718.47
2023-02-14T10:58:01.842Z,101709.53
2023-02-14T11:00:35.511Z,101695.81
2023-02-14T11:03:07.322Z,101701.19
2023-02-14T11:05:46.842Z,101704.78
2023-02-14T11:08:36.393Z,101696.31
2023-02-14T11:11:23.967Z,101688.34
2023-02-14T11:13:51.260Z,101700.06
2023-02-14T11:16:35.987Z,101689.31
2023-02-14T11:19:16.179Z,101693.56
2023-02-14T11:21:45.524Z,101692.56
2023-02-14T11:24:35.209Z,101691.06
2023-02-14T11:27:10.964Z,101697.25
2023-02-14T11:29:52.572Z,101704.13
2023-02-14T11:32:34.482Z,101694.34
2023-02-14T11:35:07.206Z,101692.38
2023-02-14T11:37:43.610Z,101689.31
2023-02-14T11:40:25.629Z,101699.91
2023-02-14T11:43:02.207Z,101687.81
2023-02-14T11:45:40.515Z,101691.38
2023-02-14T11:48:34.942Z,101693.97
2023-02-14T11:51:09.951Z,101694.31
2023-02-14T11:53:46.100Z,101690.25
2023-02-14T11:56:14.443Z,101682.59
2023-02-14T11:58:45.328Z,101681.47
2023-02-14T12:01:22.194Z,101680.34
2023-02-14T12:03:49.558Z,101675.59
2023-02-14T12:06:29.054Z,101666.97
2023-02-14T12:09:17.958Z,101660.78
2023-02-14T12:11:55.621Z,101669.59
2023-02-14T12:14:24.635Z,101666.00
2023-02-14T12:17:11.592Z,101659.31
2023-02-14T12:20:13.707Z,101653.75
2023-02-14T12:23:03.276Z,101648.22
2023-02-14T12:25:56.680Z,101653.75
2023-02-14T12:28:31.596Z,101648.22
2023-02-14T12:30:59.121Z,101640.41
2023-02-14T12:33:26.452Z,101634.88
2023-02-14T12:36:06.833Z,101627.69
2023-02-14T12:38:51.713Z,101616.59
2023-02-14T12:41:40.882Z,101614.00
2023-02-14T12:44:27.633Z,101603.38
2023-02-14T12:47:16.266Z,101596.69
2023-02-14T12:50:04.335Z,101605.97
2023-02-14T12:52:34.391Z,101595.06
2023-02-14T12:55:29.265Z,101599.59
2023-02-14T12:58:14.517Z,101592.06
2023-02-14T13:01:10.581Z,101591.91
2023-02-14T13:04:06.402Z,101590.56
2023-02-14T13:07:09.580Z,101585.66
2023-02-14T13:09:50.236Z,101585.81
2023-02-14T13:12:26.220Z,101578.16
2023-02-14T13:14:58.113Z,101573.25
2023-02-14T13:17:37.624Z,101578.13
2023-02-14T13:20:25.406Z,101575.00
2023-02-14T13:22:55.128Z,101568.63
2023-02-14T13:25:33.817Z,101579.75
2023-02-14T13:28:07.716Z,101565.38
2023-02-14T13:30:38.637Z,101567.69
2023-02-14T13:33:20.917Z,101563.75
2023-02-14T13:35:48.561Z,101555.59
2023-02-14T13:38:17.085Z,101557.34
2023-02-14T13:40:45.106Z,101556.03
2023-02-14T13:43:11.904Z,101559.06
2023-02-14T13:45:47.632Z,101553.69
2023-02-14T13:48:31.808Z,101546.63
2023-02-14T13:51:04.379Z,101553.00
2023-02-14T13:53:52.609Z,101543.19
2023-02-14T13:56:21.052Z,101543.00
2023-02-14T13:58:55.200Z,101540.84
2023-02-14T14:01:50.394Z,101539.63
2023-02-14T14:04:29.156Z,101542.50
2023-02-14T14:07:05.211Z,101538.13
2023-02-14T14:09:44.140Z,101539.03
2023-02-14T14:12:34.246Z,101537.78
2023-02-14T14:15:07.040Z,101535.16
2023-02-14T14:17:36.753Z,101530.88
2023-02-14T14:20:26.445Z,101525.31
2023-02-14T14:22:55.880Z,101525.66
2023-02-14T14:25:38.456Z,101514.66
2023-02-14T14:28:20.898Z,101519.56
2023-02-14T14:30:51.723Z,101523.47
2023-02-14T14:33:33.671Z,101524.28
2023-02-14T14:36:10.372Z,101516.31
2023-02-14T14:38:50.222Z,101520.69
2023-02-14T14:41:18.175Z,101514.66
2023-02-14T14:43:45.073Z,101508.44
2023-02-14T14:46:13.406Z,101497.78
2023-02-14T14:48:47.155Z,101499.75
2023-02-14T14:51:35.699Z,101492.69
2023-02-14T14:54:18.585Z,101500.69
2023-02-14T14:57:04.174Z,101502.66
2023-02-14T14:59:39.326Z,101511.00
2023-02-14T15:02:41.573Z,101501.03
2023-02-14T15:05:26.047Z,101503.81
2023-02-14T15:07:53.302Z,101501.38
2023-02-14T15:10:30.953Z,101498.59
2023-02-14T15:13:17.876Z,101500.91
2023-02-14T15:15:50.968Z,101501.72
2023-02-14T15:18:20.787Z,101505.19
2023-02-14T15:20:52.115Z,101502.28
2023-02-14T15:23:24.717Z,101510.16
2023-02-14T15:25:52.422Z,101498.91
2023-02-14T15:28:32.149Z,101502.81
2023-02-14T15:31:02.103Z,101503.16
2023-02-14T15:33:31.585Z,101509.53
2023-02-14T15:36:03.499Z,101507.09
2023-02-14T15:38:31.922Z,101507.09
2023-02-14T15:41:00.293Z,101490.78
2023-02-14T15:43:33.259Z,101497.47
2023-02-14T15:46:18.180Z,101484.75
2023-02-14T15:48:46.593Z,101487.06
2023-02-14T15:51:24.644Z,101485.56
2023-02-14T15:53:58.306Z,101490.41
2023-02-14T15:56:46.821Z,101476.19
2023-02-14T15:59:23.772Z,101489.75
2023-02-14T16:02:14.927Z,101477.13
2023-02-14T16:04:41.853Z,101476.91
2023-02-14T16:07:28.794Z,101481.09
2023-02-14T16:10:20.428Z,101474.66
2023-02-14T16:13:01.498Z,101479.16
2023-02-14T16:15:33.587Z,101482.25
2023-02-14T16:18:01.161Z,101469.47
2023-02-14T16:20:41.759Z,101472.59
2023-02-14T16:23:36.953Z,101464.47
2023-02-14T16:26:06.810Z,101464.56
2023-02-14T16:28:36.972Z,101468.56
2023-02-14T16:31:06.212Z,101461.84
2023-02-14T16:33:35.539Z,101457.88
2023-02-14T16:36:24.965Z,101452.94
2023-02-14T16:38:53.512Z,101454.50
2023-02-14T16:41:23.146Z,101445.78
2023-02-14T16:43:50.597Z,101448.47
2023-02-14T16:46:28.598Z,101448.06
2023-02-14T16:48:56.238Z,101442.59
2023-02-14T16:51:27.394Z,101439.41
2023-02-14T16:53:57.457Z,101455.63
2023-02-14T16:56:29.453Z,101453.53
2023-02-14T16:58:59.492Z,101444.13
2023-02-14T17:01:26.470Z,101451.66
2023-02-14T17:03:53.229Z,101452.84
2023-02-14T17:06:24.385Z,101444.41
2023-02-14T17:08:52.810Z,101443.97
2023-02-14T17:11:20.459Z,101436.19
2023-02-14T17:13:47.830Z,101432.28
2023-02-14T17:16:16.657Z,101454.63
2023-02-14T17:18:50.401Z,101454.00
2023-02-14T17:21:21.008Z,101454.19
2023-02-14T17:23:48.349Z,101449.94
2023-02-14T17:26:15.182Z,101435.13
2023-02-14T17:28:41.976Z,101462.97
2023-02-14T17:31:08.965Z,101462.84
2023-02-14T17:33:36.155Z,101458.28
2023-02-14T17:36:10.119Z,101466.44
2023-02-14T17:38:39.433Z,101465.13
2023-02-14T17:41:22.924Z,101455.03
2023-02-14T17:43:50.854Z,101457.97
2023-02-14T17:46:20.818Z,101451.94
2023-02-14T17:48:49.180Z,101467.25
2023-02-14T17:51:20.442Z,101464.66
2023-02-14T17:53:48.524Z,101465.31
2023-02-14T17:56:19.249Z,101468.72
2023-02-14T17:58:48.782Z,101460.25
2023-02-14T18:01:18.021Z,101467.25
2023-02-14T18:03:44.882Z,101460.09
2023-02-14T18:06:12.107Z,101475.06
2023-02-14T18:08:46.363Z,101476.53
2023-02-14T18:11:14.203Z,101468.56
2023-02-14T18:13:40.984Z,101466.41
2023-02-14T18:16:11.612Z,101469.00
2023-02-14T18:18:38.818Z,101464.94
2023-02-14T18:21:08.446Z,101456.16
2023-02-14T18:23:36.097Z,101456.44
2023-02-14T18:26:05.357Z,101459.06
2023-02-14T18:28:33.939Z,101453.06
2023-02-14T18:31:07.448Z,101450.13
2023-02-14T18:33:35.636Z,101450.41
2023-02-14T18:36:07.512Z,101446.03
2023-02-14T18:38:35.426Z,101450.59
2023-02-14T18:41:03.644Z,101444.56
2023-02-14T18:43:30.657Z,101444.09
2023-02-14T18:46:05.954Z,101441.97
2023-02-14T18:48:33.322Z,101452.53
2023-02-14T18:51:11.164Z,101446.53
2023-02-14T18:53:41.196Z,101436.09
2023-02-14T18:56:20.985Z,101431.69
2023-02-14T18:58:50.781Z,101425.97
2023-02-14T19:01:23.380Z,101432.97
2023-02-14T19:03:51.641Z,101439.97
2023-02-14T19:06:19.211Z,101432.81
2023-02-14T19:08:46.112Z,101437.84
2023-02-14T19:11:19.385Z,101435.41
2023-02-14T19:13:52.130Z,101425.47
2023-02-14T19:16:25.697Z,101423.88
2023-02-14T19:18:55.947Z,101421.09
2023-02-14T19:21:26.041Z,101418.00
2023-02-14T19:23:54.990Z,101418.00
2023-02-14T19:26:25.013Z,101426.78
2023-02-14T19:28:56.605Z,101432.00
2023-02-14T19:31:24.091Z,101436.06
2023-02-14T19:33:51.497Z,101428.91
2023-02-14T19:36:29.065Z,101419.81
2023-02-14T19:38:56.961Z,101432.00
2023-02-14T19:41:26.473Z,101432.66
2023-02-14T19:43:57.726Z,101423.88
2023-02-14T19:46:26.081Z,101433.28
2023-02-14T19:48:56.248Z,101428.38
2023-02-14T19:51:25.905Z,101430.66
2023-02-14T19:53:53.989Z,101430.66
2023-02-14T19:56:35.284Z,101421.56
2023-02-14T19:59:07.797Z,101422.06
2023-02-14T20:01:41.653Z,101417.34
2023-02-14T20:04:13.793Z,101420.91
2023-02-14T20:06:42.037Z,101424.50
2023-02-14T20:09:09.508Z,101428.91
2023-02-14T20:11:40.251Z,101427.75
2023-02-14T20:14:08.448Z,101425.31
2023-02-14T20:16:36.797Z,101418.97
2023-02-14T20:19:08.137Z,101416.69
2023-02-14T20:21:37.862Z,101417.84
2023-02-14T20:24:05.516Z,101417.53
2023-02-14T20:26:35.849Z,101412.63
2023-02-14T20:29:04.733Z,101407.91
2023-02-14T20:31:33.207Z,101417.34
2023-02-14T20:34:00.751Z,101420.75
2023-02-14T20:36:27.698Z,101404.81
2023-02-14T20:39:04.671Z,101407.75
2023-02-14T20:41:34.496Z,101397.31
2023-02-14T20:44:10.337Z,101395.84
2023-02-14T20:46:37.079Z,101394.03
2023-02-14T20:49:05.509Z,101395.50
2023-02-14T20:51:32.911Z,101379.88
2023-02-14T20:54:03.408Z,101393.53
2023-02-14T20:56:30.356Z,101380.16
2023-02-14T20:58:57.038Z,101378.84
2023-02-14T21:01:24.819Z,101374.78
2023-02-14T21:03:53.455Z,101384.19
2023-02-14T21:06:22.664Z,101384.19
2023-02-14T21:08:50.341Z,101377.88
2023-02-14T21:11:19.145Z,101368.78
2023-02-14T21:13:46.983Z,101374.59
2023-02-14T21:16:19.382Z,101357.25
2023-02-14T21:18:52.416Z,101352.84
2023-02-14T21:21:22.998Z,101351.19
2023-02-14T21:23:51.930Z,101340.16
2023-02-14T21:26:21.447Z,101322.28
2023-02-14T21:28:48.983Z,101325.38
2023-02-14T21:31:20.671Z,101319.66
2023-02-14T21:33:56.924Z,101316.91
2023-02-14T21:36:28.745Z,101315.78
2023-02-14T21:38:58.414Z,101316.91
2023-02-14T21:41:29.029Z,101310.06
2023-02-14T21:43:59.168Z,101313.66
2023-02-14T21:46:31.147Z,101311.38
2023-02-14T21:49:18.151Z,101314.13
2023-02-14T21:51:45.457Z,101323.56
2023-02-14T21:54:12.594Z,101329.09
2023-02-14T21:56:41.381Z,101334.63
2023-02-14T21:59:09.882Z,101337.69
2023-02-14T22:01:41.304Z,101339.63
2023-02-14T22:04:11.040Z,101349.38
2023-02-14T22:06:43.785Z,101336.72
2023-02-14T22:09:14.119Z,101330.38
2023-02-14T22:11:41.444Z,101340.41
2023-02-14T22:14:08.640Z,101332.47
2023-02-14T22:16:36.940Z,101320.59
2023-02-14T22:19:05.326Z,101324.50
2023-02-14T22:21:33.590Z,101322.88
2023-02-14T22:24:01.291Z,101312.13
2023-02-14T22:26:31.614Z,101302.41
2023-02-14T22:29:00.321Z,101300.78
2023-02-14T22:31:33.492Z,101299.97
2023-02-14T22:34:04.866Z,101292.81
2023-02-14T22:36:32.058Z,101299.13
2023-02-14T22:38:58.972Z,101286.97
2023-02-14T22:41:26.024Z,101283.59
2023-02-14T22:43:54.677Z,101282.94
2023-02-14T22:46:24.596Z,101286.19
2023-02-14T22:48:52.390Z,101276.75
2023-02-14T22:51:19.062Z,101274.50
2023-02-14T22:53:46.176Z,101279.41
2023-02-14T22:56:22.349Z,101269.50
2023-02-14T22:58:52.827Z,101277.63
2023-02-14T23:01:21.964Z,101281.69
2023-02-14T23:03:49.586Z,101270.50
2023-02-14T23:06:16.329Z,101254.41
2023-02-14T23:08:45.185Z,101260.41
2023-02-14T23:11:23.290Z,101257.53
2023-02-14T23:14:10.180Z,101258.00
2023-02-14T23:16:57.695Z,101262.56
2023-02-14T23:19:46.226Z,101262.88
2023-02-14T23:22:36.642Z,101258.81
2023-02-14T23:25:07.388Z,101262.72
2023-02-14T23:27:47.488Z,101273.59
2023-02-14T23:30:17.193Z,101262.69
2023-02-14T23:32:44.362Z,101260.09
2023-02-14T23:35:14.134Z,101261.88
2023-02-14T23:37:41.785Z,101268.03
2023-02-14T23:40:10.054Z,101256.00
2023-02-14T23:42:37.110Z,101248.34
2023-02-14T23:45:22.590Z,101253.72
2023-02-14T23:47:49.412Z,101236.16
2023-02-14T23:50:16.495Z,101234.84
2023-02-14T23:52:44.633Z,101233.06
2023-02-14T23:55:11.956Z,101229.00
2023-02-14T23:57:39.600Z,101224.94
